createdAt,value
2018-06-17T00:01:11.743Z,4.90
2018-06-17T00:03:40.341Z,4.70
2018-06-17T00:06:09.078Z,5.07
2018-06-17T00:08:37.692Z,4.70
2018-06-17T00:11:07.519Z,4.53
2018-06-17T00:13:36.095Z,4.70
2018-06-17T00:16:04.771Z,4.40
2018-06-17T00:18:33.331Z,4.60
2018-06-17T00:21:02.065Z,4.63
2018-06-17T00:23:30.716Z,4.33
2018-06-17T00:26:00.370Z,4.47
2018-06-17T00:28:29.857Z,4.40
2018-06-17T00:30:58.472Z,4.30
2018-06-17T00:33:27.080Z,4.37
2018-06-17T00:35:55.785Z,4.10
2018-06-17T00:38:25.413Z,4.13
2018-06-17T00:40:53.993Z,4.13
2018-06-17T00:43:22.583Z,4.53
2018-06-17T00:45:51.210Z,4.33
2018-06-17T00:48:19.784Z,4.33
2018-06-17T00:50:48.406Z,4.90
2018-06-17T00:53:16.625Z,5.60
2018-06-17T00:55:45.268Z,5.20
2018-06-17T00:58:14.950Z,5.07
2018-06-17T01:00:43.571Z,5.10
2018-06-17T01:03:13.123Z,5.10
2018-06-17T01:05:41.791Z,5.03
2018-06-17T01:08:10.402Z,4.47
2018-06-17T01:10:39.134Z,4.33
2018-06-17T01:13:07.746Z,4.07
2018-06-17T01:15:36.310Z,4.30
2018-06-17T01:18:05.907Z,4.00
2018-06-17T01:20:35.775Z,4.23
2018-06-17T01:23:04.337Z,4.20
2018-06-17T01:25:32.927Z,3.73
2018-06-17T01:28:02.542Z,3.80
2018-06-17T01:30:31.100Z,4.30
2018-06-17T01:32:59.715Z,4.23
2018-06-17T01:35:28.379Z,4.30
2018-06-17T01:37:57.004Z,3.90
2018-06-17T01:40:25.634Z,4.20
2018-06-17T01:42:55.285Z,4.00
2018-06-17T01:45:26.535Z,3.80
2018-06-17T01:47:55.190Z,4.13
2018-06-17T01:50:23.953Z,3.93
2018-06-17T01:52:52.535Z,4.50
2018-06-17T01:55:20.740Z,3.63
2018-06-17T01:57:49.498Z,4.80
2018-06-17T02:00:17.709Z,3.80
2018-06-17T02:02:46.726Z,4.33
2018-06-17T02:05:20.687Z,4.10
2018-06-17T02:07:54.373Z,4.93
2018-06-17T02:10:28.303Z,4.67
2018-06-17T02:12:56.857Z,4.37
2018-06-17T02:15:25.462Z,4.73
2018-06-17T02:17:55.128Z,4.57
2018-06-17T02:20:25.429Z,5.20
2018-06-17T02:22:54.057Z,4.93
2018-06-17T02:25:22.671Z,5.30
2018-06-17T02:27:51.299Z,5.33
2018-06-17T02:30:19.896Z,5.40
2018-06-17T02:32:49.482Z,5.57
2018-06-17T02:35:18.708Z,5.90
2018-06-17T02:37:47.311Z,5.53
2018-06-17T02:40:16.003Z,5.77
2018-06-17T02:42:44.625Z,5.50
2018-06-17T02:45:18.612Z,5.20
2018-06-17T02:47:52.433Z,5.30
2018-06-17T02:50:26.308Z,5.17
2018-06-17T02:53:01.126Z,4.83
2018-06-17T02:55:29.739Z,5.70
2018-06-17T02:57:58.306Z,5.90
2018-06-17T03:00:26.907Z,5.60
2018-06-17T03:02:55.493Z,5.50
2018-06-17T03:05:26.131Z,4.87
2018-06-17T03:07:54.745Z,4.97
2018-06-17T03:10:23.368Z,5.57
2018-06-17T03:12:52.097Z,5.43
2018-06-17T03:15:21.774Z,5.37
2018-06-17T03:17:50.351Z,5.33
2018-06-17T03:20:18.929Z,5.67
2018-06-17T03:22:47.521Z,5.60
2018-06-17T03:25:21.333Z,5.03
2018-06-17T03:27:55.161Z,5.10
2018-06-17T03:30:29.180Z,5.80
2018-06-17T03:33:02.868Z,5.27
2018-06-17T03:35:36.978Z,4.83
2018-06-17T03:38:05.642Z,5.83
2018-06-17T03:40:34.231Z,5.07
2018-06-17T03:43:02.831Z,5.70
2018-06-17T03:45:31.426Z,5.70
2018-06-17T03:48:00.033Z,6.17
2018-06-17T03:50:28.364Z,5.77
2018-06-17T03:52:57.036Z,6.80
2018-06-17T03:55:25.655Z,6.53
2018-06-17T03:57:54.204Z,6.37
2018-06-17T04:00:22.776Z,6.63
2018-06-17T04:02:51.403Z,6.57
2018-06-17T04:05:25.223Z,5.87
2018-06-17T04:07:53.938Z,6.40
2018-06-17T04:10:26.738Z,6.83
2018-06-17T04:12:55.386Z,6.30
2018-06-17T04:15:24.028Z,6.73
2018-06-17T04:17:52.708Z,5.60
2018-06-17T04:20:20.992Z,7.27
2018-06-17T04:22:49.224Z,6.53
2018-06-17T04:25:18.835Z,6.20
2018-06-17T04:27:47.427Z,6.00
2018-06-17T04:30:16.018Z,6.17
2018-06-17T04:32:44.664Z,6.60
2018-06-17T04:35:15.092Z,6.43
2018-06-17T04:37:43.690Z,7.30
2018-06-17T04:40:12.320Z,6.20
2018-06-17T04:42:40.874Z,6.17
2018-06-17T04:45:09.431Z,6.30
2018-06-17T04:47:38.063Z,5.60
2018-06-17T04:50:06.762Z,5.40
2018-06-17T04:52:35.409Z,5.47
2018-06-17T04:55:04.072Z,5.53
2018-06-17T04:57:32.634Z,5.50
2018-06-17T05:00:01.295Z,5.97
2018-06-17T05:02:29.850Z,6.10
2018-06-17T05:04:58.419Z,5.27
2018-06-17T05:07:28.038Z,5.57
2018-06-17T05:09:56.716Z,5.97
2018-06-17T05:12:25.369Z,6.17
2018-06-17T05:14:54.096Z,5.47
2018-06-17T05:17:22.852Z,5.57
2018-06-17T05:19:51.452Z,5.40
2018-06-17T05:22:20.053Z,5.27
2018-06-17T05:24:49.152Z,4.83
2018-06-17T05:27:17.748Z,5.73
2018-06-17T05:29:47.393Z,5.17
2018-06-17T05:32:16.124Z,5.20
2018-06-17T05:34:45.699Z,4.60
2018-06-17T05:37:14.308Z,5.30
2018-06-17T05:39:42.893Z,5.00
2018-06-17T05:42:11.465Z,5.60
2018-06-17T05:44:40.067Z,5.60
2018-06-17T05:47:08.667Z,5.27
2018-06-17T05:49:37.285Z,5.67
2018-06-17T05:52:05.914Z,5.23
2018-06-17T05:54:34.118Z,5.73
2018-06-17T05:57:02.683Z,4.93
2018-06-17T05:59:31.333Z,5.20
2018-06-17T06:01:59.952Z,6.17
2018-06-17T06:04:28.530Z,5.13
2018-06-17T06:06:57.173Z,5.60
2018-06-17T06:09:25.901Z,6.00
2018-06-17T06:11:54.683Z,5.87
2018-06-17T06:14:23.213Z,4.80
2018-06-17T06:16:51.784Z,4.40
2018-06-17T06:19:20.381Z,5.17
2018-06-17T06:21:48.610Z,4.67
2018-06-17T06:24:17.235Z,4.60
2018-06-17T06:26:46.798Z,4.27
2018-06-17T06:29:17.411Z,3.70
2018-06-17T06:31:47.079Z,3.60
2018-06-17T06:34:15.739Z,3.90
2018-06-17T06:36:44.300Z,4.23
2018-06-17T06:39:12.890Z,3.47
2018-06-17T06:41:41.556Z,4.10
2018-06-17T06:44:10.174Z,4.10
2018-06-17T06:46:38.830Z,4.00
2018-06-17T06:49:07.513Z,4.00
2018-06-17T06:51:36.719Z,3.97
2018-06-17T06:54:05.597Z,4.60
2018-06-17T06:56:34.185Z,4.20
2018-06-17T06:59:02.774Z,4.47
2018-06-17T07:01:44.300Z,3.63
2018-06-17T07:04:25.023Z,3.57
2018-06-17T07:07:05.677Z,3.47
2018-06-17T07:10:41.089Z,3.90
2018-06-17T07:13:09.657Z,3.43
2018-06-17T07:15:49.538Z,3.43
2018-06-17T07:18:28.622Z,3.73
2018-06-17T07:20:57.276Z,4.33
2018-06-17T07:23:26.010Z,4.37
2018-06-17T07:26:27.757Z,3.70
2018-06-17T07:29:07.548Z,3.80
2018-06-17T07:31:36.581Z,3.60
2018-06-17T07:34:05.475Z,3.37
2018-06-17T07:36:34.604Z,3.30
2018-06-17T07:39:16.380Z,3.93
2018-06-17T07:41:46.526Z,3.70
2018-06-17T07:44:15.112Z,3.70
2018-06-17T07:46:43.853Z,3.70
2018-06-17T07:49:35.811Z,3.90
2018-06-17T07:52:16.572Z,4.20
2018-06-17T07:54:45.572Z,3.80
2018-06-17T07:57:15.389Z,3.90
2018-06-17T07:59:44.005Z,3.80
2018-06-17T08:02:13.054Z,4.27
2018-06-17T08:04:42.655Z,4.43
2018-06-17T08:07:11.308Z,3.70
2018-06-17T08:09:40.737Z,3.87
2018-06-17T08:12:10.257Z,4.03
2018-06-17T08:14:40.125Z,3.47
2018-06-17T08:17:08.714Z,3.00
2018-06-17T08:19:37.509Z,3.43
2018-06-17T08:22:06.180Z,3.23
2018-06-17T08:24:36.362Z,3.40
2018-06-17T08:27:05.066Z,3.30
2018-06-17T08:29:33.695Z,3.53
2018-06-17T08:32:02.342Z,3.23
2018-06-17T08:34:35.091Z,3.00
2018-06-17T08:37:03.677Z,2.87
2018-06-17T08:39:33.365Z,3.23
2018-06-17T08:42:01.986Z,3.00
2018-06-17T08:44:31.614Z,3.17
2018-06-17T08:47:00.211Z,3.40
2018-06-17T08:49:29.599Z,3.40
2018-06-17T08:51:58.230Z,2.90
2018-06-17T08:54:26.873Z,2.77
2018-06-17T08:56:55.519Z,2.70
2018-06-17T08:59:26.085Z,2.50
2018-06-17T09:01:54.674Z,2.67
2018-06-17T09:04:24.307Z,3.00
2018-06-17T09:06:52.916Z,2.40
2018-06-17T09:09:21.564Z,2.53
2018-06-17T09:11:52.233Z,2.50
2018-06-17T09:14:20.941Z,2.60
2018-06-17T09:16:49.544Z,2.90
2018-06-17T09:19:18.228Z,2.83
2018-06-17T09:21:46.796Z,3.23
2018-06-17T09:24:16.251Z,2.90
2018-06-17T09:26:44.987Z,2.93
2018-06-17T09:29:14.202Z,2.90
2018-06-17T09:31:42.925Z,2.80
2018-06-17T09:34:11.513Z,2.60
2018-06-17T09:36:40.128Z,2.90
2018-06-17T09:39:09.837Z,3.10
2018-06-17T09:41:38.495Z,3.20
2018-06-17T09:44:07.145Z,2.87
2018-06-17T09:46:35.741Z,3.10
2018-06-17T09:49:04.394Z,2.60
2018-06-17T09:51:33.080Z,2.60
2018-06-17T09:54:01.767Z,2.93
2018-06-17T09:56:31.507Z,3.00
2018-06-17T09:59:00.140Z,2.90
2018-06-17T10:01:28.787Z,2.73
2018-06-17T10:03:57.350Z,3.03
2018-06-17T10:06:25.984Z,3.00
2018-06-17T10:08:54.659Z,3.03
2018-06-17T10:11:23.290Z,3.30
2018-06-17T10:13:51.974Z,2.97
2018-06-17T10:16:20.608Z,3.50
2018-06-17T10:18:49.247Z,2.50
2018-06-17T10:21:17.947Z,2.60
2018-06-17T10:23:46.635Z,2.87
2018-06-17T10:26:16.470Z,3.40
2018-06-17T10:28:45.104Z,2.80
2018-06-17T10:31:13.394Z,2.97
2018-06-17T10:33:42.418Z,3.13
2018-06-17T10:36:11.330Z,3.30
2018-06-17T10:38:39.996Z,3.33
2018-06-17T10:41:08.795Z,2.97
2018-06-17T10:43:37.489Z,3.00
2018-06-17T10:46:08.444Z,3.10
2018-06-17T10:48:37.149Z,2.67
2018-06-17T10:51:06.772Z,2.87
2018-06-17T10:53:35.364Z,3.03
2018-06-17T10:56:04.221Z,2.97
2018-06-17T10:58:32.752Z,2.70
2018-06-17T11:01:01.363Z,3.00
2018-06-17T11:03:30.969Z,3.00
2018-06-17T11:06:00.543Z,3.13
2018-06-17T11:08:29.334Z,3.10
2018-06-17T11:11:01.872Z,3.03
2018-06-17T11:13:30.514Z,3.20
2018-06-17T11:15:59.099Z,3.47
2018-06-17T11:18:27.871Z,2.93
2018-06-17T11:20:56.454Z,4.17
2018-06-17T11:23:25.062Z,3.30
2018-06-17T11:25:53.693Z,3.60
2018-06-17T11:28:22.938Z,3.60
2018-06-17T11:30:51.557Z,4.37
2018-06-17T11:33:20.218Z,3.40
2018-06-17T11:35:48.834Z,3.60
2018-06-17T11:38:17.424Z,3.13
2018-06-17T11:40:46.104Z,3.60
2018-06-17T11:43:15.739Z,3.30
2018-06-17T11:45:44.986Z,3.80
2018-06-17T11:48:14.872Z,3.73
2018-06-17T11:50:43.544Z,3.30
2018-06-17T11:53:12.246Z,3.63
2018-06-17T11:55:40.883Z,4.00
2018-06-17T11:58:09.504Z,3.30
2018-06-17T12:00:39.097Z,3.87
2018-06-17T12:03:07.735Z,3.77
2018-06-17T12:05:37.322Z,4.07
2018-06-17T12:08:06.125Z,3.80
2018-06-17T12:10:34.791Z,3.90
2018-06-17T12:13:03.398Z,3.40
2018-06-17T12:15:31.984Z,4.07
2018-06-17T12:18:00.748Z,4.07
2018-06-17T12:20:29.335Z,3.43
2018-06-17T12:22:57.984Z,4.77
2018-06-17T12:25:26.672Z,4.40
2018-06-17T12:27:55.329Z,4.10
2018-06-17T12:30:24.939Z,3.87
2018-06-17T12:32:53.626Z,3.20
2018-06-17T12:35:26.242Z,3.60
2018-06-17T12:37:54.871Z,3.40
2018-06-17T12:40:24.484Z,3.30
2018-06-17T12:42:53.089Z,3.40
2018-06-17T12:45:25.145Z,3.40
2018-06-17T12:47:53.809Z,3.63
2018-06-17T12:50:22.426Z,4.03
2018-06-17T12:52:51.093Z,3.30
2018-06-17T12:55:19.774Z,3.30
2018-06-17T12:57:48.409Z,3.20
2018-06-17T13:00:17.125Z,3.10
2018-06-17T13:02:45.789Z,3.97
2018-06-17T13:05:15.429Z,3.73
2018-06-17T13:07:44.365Z,3.83
2018-06-17T13:10:15.059Z,3.10
2018-06-17T13:12:43.735Z,4.30
2018-06-17T13:15:12.551Z,4.67
2018-06-17T13:17:41.204Z,4.60
2018-06-17T13:20:09.967Z,4.50
2018-06-17T13:22:38.778Z,4.30
2018-06-17T13:25:07.469Z,4.70
2018-06-17T13:27:36.091Z,5.20
2018-06-17T13:30:05.022Z,4.77
2018-06-17T13:32:37.444Z,4.50
2018-06-17T13:35:06.223Z,5.10
2018-06-17T13:37:34.944Z,4.77
2018-06-17T13:40:05.286Z,4.67
2018-06-17T13:42:33.924Z,4.77
2018-06-17T13:45:03.589Z,5.03
2018-06-17T13:47:32.273Z,5.57
2018-06-17T13:50:01.961Z,5.80
2018-06-17T13:52:30.581Z,5.67
2018-06-17T13:54:59.179Z,5.23
2018-06-17T13:57:27.796Z,5.30
2018-06-17T13:59:56.394Z,5.43
2018-06-17T14:02:25.015Z,5.10
2018-06-17T14:04:53.619Z,5.23
2018-06-17T14:07:26.064Z,5.23
2018-06-17T14:09:54.840Z,4.77
2018-06-17T14:12:23.518Z,5.20
2018-06-17T14:14:52.284Z,5.20
2018-06-17T14:17:21.002Z,4.90
2018-06-17T14:19:49.708Z,4.27
2018-06-17T14:22:18.363Z,4.77
2018-06-17T14:24:47.225Z,4.90
2018-06-17T14:27:17.107Z,5.30
2018-06-17T14:29:45.723Z,4.97
2018-06-17T14:32:14.863Z,5.27
2018-06-17T14:34:43.588Z,5.77
2018-06-17T14:37:12.208Z,5.10
2018-06-17T14:39:40.882Z,5.10
2018-06-17T14:42:14.628Z,5.03
2018-06-17T14:44:48.618Z,5.10
2018-06-17T14:47:22.322Z,4.87
2018-06-17T14:49:57.332Z,5.13
2018-06-17T14:52:25.997Z,4.67
2018-06-17T14:54:57.041Z,4.00
2018-06-17T14:57:25.903Z,3.10
2018-06-17T14:59:54.539Z,3.20
2018-06-17T15:02:23.160Z,3.30
2018-06-17T15:04:53.803Z,3.00
2018-06-17T15:07:26.507Z,3.57
2018-06-17T15:09:57.661Z,2.93
2018-06-17T15:12:26.319Z,3.17
2018-06-17T15:14:55.053Z,3.00
2018-06-17T15:17:23.766Z,2.90
2018-06-17T15:19:52.385Z,3.00
2018-06-17T15:22:21.706Z,3.00
2018-06-17T15:24:50.388Z,2.50
2018-06-17T15:27:23.957Z,2.70
2018-06-17T15:29:54.725Z,3.10
2018-06-17T15:32:28.687Z,2.57
2018-06-17T15:35:02.568Z,2.47
2018-06-17T15:37:37.515Z,2.03
2018-06-17T15:40:07.120Z,2.57
2018-06-17T15:42:36.780Z,2.70
2018-06-17T15:45:05.522Z,2.80
2018-06-17T15:47:36.199Z,2.80
2018-06-17T15:50:06.804Z,3.20
2018-06-17T15:52:35.396Z,2.93
2018-06-17T15:55:05.124Z,3.57
2018-06-17T15:57:33.735Z,3.30
2018-06-17T16:00:03.522Z,3.43
2018-06-17T16:02:32.182Z,3.50
2018-06-17T16:05:00.912Z,3.77
2018-06-17T16:07:33.366Z,3.30
2018-06-17T16:10:05.911Z,3.60
2018-06-17T16:12:39.553Z,3.27
2018-06-17T16:15:13.424Z,2.90
2018-06-17T16:17:48.278Z,3.43
2018-06-17T16:20:22.094Z,3.60
2018-06-17T16:22:50.764Z,3.50
2018-06-17T16:25:19.380Z,3.70
2018-06-17T16:27:48.081Z,3.50
2018-06-17T16:30:16.730Z,3.70
2018-06-17T16:32:45.373Z,3.40
2018-06-17T16:35:14.181Z,3.57
2018-06-17T16:37:42.819Z,4.00
2018-06-17T16:40:13.597Z,3.60
2018-06-17T16:42:42.190Z,3.90
2018-06-17T16:45:11.054Z,4.40
2018-06-17T16:47:39.681Z,3.63
2018-06-17T16:50:08.409Z,4.20
2018-06-17T16:52:44.367Z,4.40
2018-06-17T16:55:18.327Z,4.73
2018-06-17T16:57:53.153Z,4.40
2018-06-17T17:00:22.038Z,4.37
2018-06-17T17:02:50.658Z,4.33
2018-06-17T17:05:19.367Z,4.27
2018-06-17T17:07:47.996Z,4.37
2018-06-17T17:10:25.346Z,4.37
2018-06-17T17:12:53.977Z,4.37
2018-06-17T17:15:22.683Z,4.10
2018-06-17T17:17:51.411Z,3.97
2018-06-17T17:20:20.287Z,3.50
2018-06-17T17:22:49.970Z,3.63
2018-06-17T17:25:18.754Z,4.07
2018-06-17T17:27:48.382Z,4.20
2018-06-17T17:30:17.018Z,4.07
2018-06-17T17:32:51.094Z,4.00
2018-06-17T17:35:24.987Z,4.67
2018-06-17T17:37:59.093Z,5.60
2018-06-17T17:40:33.009Z,6.63
2018-06-17T17:43:01.683Z,5.47
2018-06-17T17:45:36.050Z,5.50
2018-06-17T17:48:04.775Z,6.10
2018-06-17T17:50:33.472Z,5.63
2018-06-17T17:53:02.140Z,6.00
2018-06-17T17:55:31.795Z,5.43
2018-06-17T17:58:00.489Z,5.37
2018-06-17T18:00:29.237Z,5.67
2018-06-17T18:02:58.027Z,5.63
2018-06-17T18:05:26.382Z,6.17
2018-06-17T18:07:55.157Z,6.67
2018-06-17T18:10:23.904Z,7.60
2018-06-17T18:12:52.848Z,7.03
2018-06-17T18:15:34.832Z,6.60
2018-06-17T18:18:15.765Z,5.90
2018-06-17T18:20:44.758Z,5.57
2018-06-17T18:23:18.113Z,5.27
2018-06-17T18:25:52.475Z,6.20
2018-06-17T18:28:26.983Z,6.53
2018-06-17T18:31:00.009Z,5.67
2018-06-17T18:33:33.994Z,5.80
2018-06-17T18:36:11.652Z,6.30
2018-06-17T18:38:41.737Z,5.90
2018-06-17T18:41:11.579Z,5.80
2018-06-17T18:43:41.605Z,6.00
2018-06-17T18:46:15.399Z,7.57
2018-06-17T18:48:44.314Z,6.67
2018-06-17T18:51:14.130Z,7.77
2018-06-17T18:53:42.946Z,7.67
2018-06-17T18:56:11.338Z,7.03
2018-06-17T18:58:44.945Z,7.60
2018-06-17T19:01:14.022Z,10.10
2018-06-17T19:03:44.889Z,7.83
2018-06-17T19:06:18.710Z,6.90
2018-06-17T19:08:59.975Z,6.70
2018-06-17T19:11:33.955Z,7.03
2018-06-17T19:14:07.931Z,7.13
2018-06-17T19:16:44.271Z,8.03
2018-06-17T19:19:12.991Z,8.10
2018-06-17T19:21:41.779Z,11.87
2018-06-17T19:24:10.493Z,8.30
2018-06-17T19:26:39.228Z,8.77
2018-06-17T19:29:07.885Z,7.27
2018-06-17T19:31:38.528Z,6.70
2018-06-17T19:34:07.510Z,6.50
2018-06-17T19:36:37.217Z,6.20
2018-06-17T19:39:11.114Z,6.50
2018-06-17T19:41:39.891Z,6.40
2018-06-17T19:44:09.482Z,6.47
2018-06-17T19:46:38.341Z,6.57
2018-06-17T19:49:07.137Z,6.10
2018-06-17T19:52:44.438Z,5.20
2018-06-17T19:55:18.414Z,6.27
2018-06-17T19:57:52.608Z,5.67
2018-06-17T20:00:27.534Z,7.13
2018-06-17T20:02:56.131Z,6.17
2018-06-17T20:05:24.935Z,5.80
2018-06-17T20:07:53.785Z,6.00
2018-06-17T20:10:22.490Z,5.10
2018-06-17T20:12:51.081Z,4.83
2018-06-17T20:15:19.660Z,5.40
2018-06-17T20:17:49.274Z,5.10
2018-06-17T20:20:17.946Z,5.33
2018-06-17T20:22:49.579Z,5.10
2018-06-17T20:25:19.157Z,4.53
2018-06-17T20:27:47.773Z,5.47
2018-06-17T20:30:16.354Z,5.07
2018-06-17T20:32:50.234Z,5.10
2018-06-17T20:35:23.996Z,5.17
2018-06-17T20:37:58.932Z,5.47
2018-06-17T20:40:32.731Z,5.53
2018-06-17T20:43:06.775Z,5.70
2018-06-17T20:45:35.437Z,6.20
2018-06-17T20:48:08.443Z,6.70
2018-06-17T20:50:37.085Z,7.40
2018-06-17T20:53:05.689Z,6.27
2018-06-17T20:55:35.061Z,6.80
2018-06-17T20:58:03.728Z,6.70
2018-06-17T21:00:32.292Z,7.17
2018-06-17T21:03:00.899Z,6.53
2018-06-17T21:05:31.459Z,6.60
2018-06-17T21:08:00.001Z,7.23
2018-06-17T21:10:29.715Z,7.63
2018-06-17T21:12:58.369Z,7.67
2018-06-17T21:15:26.962Z,6.90
2018-06-17T21:17:59.764Z,6.90
2018-06-17T21:20:33.594Z,6.97
2018-06-17T21:23:07.458Z,7.33
2018-06-17T21:25:41.228Z,7.47
2018-06-17T21:28:09.842Z,6.43
2018-06-17T21:30:39.488Z,6.73
2018-06-17T21:33:08.105Z,7.30
2018-06-17T21:35:36.708Z,6.90
2018-06-17T21:38:05.286Z,7.23
2018-06-17T21:40:34.894Z,6.83
2018-06-17T21:43:03.522Z,6.93
2018-06-17T21:45:32.117Z,6.57
2018-06-17T21:48:01.425Z,7.60
2018-06-17T21:50:30.049Z,7.60
2018-06-17T21:52:58.647Z,6.70
2018-06-17T21:55:27.249Z,6.47
2018-06-17T21:57:56.067Z,6.37
2018-06-17T22:00:24.688Z,6.27
2018-06-17T22:02:53.370Z,6.97
2018-06-17T22:05:22.173Z,6.43
2018-06-17T22:07:57.046Z,6.10
2018-06-17T22:10:35.330Z,6.13
2018-06-17T22:13:03.952Z,5.90
2018-06-17T22:15:39.659Z,6.50
2018-06-17T22:18:08.434Z,5.87
2018-06-17T22:20:37.058Z,5.80
2018-06-17T22:23:07.864Z,6.57
2018-06-17T22:25:37.518Z,6.03
2018-06-17T22:28:06.172Z,5.83
2018-06-17T22:30:34.900Z,6.40
2018-06-17T22:33:03.512Z,6.67
2018-06-17T22:35:33.092Z,6.30
2018-06-17T22:38:01.881Z,6.07
2018-06-17T22:40:30.457Z,6.23
2018-06-17T22:42:59.034Z,6.03
2018-06-17T22:45:28.676Z,5.90
2018-06-17T22:47:58.952Z,5.93
2018-06-17T22:50:27.782Z,6.00
2018-06-17T22:53:07.494Z,6.20
2018-06-17T22:55:37.128Z,6.43
2018-06-17T22:58:10.877Z,5.53
2018-06-17T23:00:45.819Z,6.57
2018-06-17T23:03:19.632Z,5.63
2018-06-17T23:05:53.418Z,6.43
2018-06-17T23:08:27.302Z,6.20
2018-06-17T23:10:55.874Z,5.60
2018-06-17T23:13:24.494Z,5.93
2018-06-17T23:15:53.703Z,5.83
2018-06-17T23:18:22.399Z,5.00
2018-06-17T23:20:50.983Z,5.67
2018-06-17T23:23:19.783Z,6.17
2018-06-17T23:25:48.023Z,6.30
2018-06-17T23:28:16.684Z,6.27
2018-06-17T23:30:45.361Z,6.03
2018-06-17T23:33:13.872Z,6.33
2018-06-17T23:35:42.477Z,5.00
2018-06-17T23:38:14.151Z,6.53
2018-06-17T23:40:42.823Z,5.93
2018-06-17T23:43:11.387Z,5.60
2018-06-17T23:45:44.375Z,5.47
2018-06-17T23:48:18.329Z,5.73
2018-06-17T23:50:52.316Z,5.70
2018-06-17T23:53:26.168Z,4.50
2018-06-17T23:56:00.038Z,5.30
2018-06-17T23:58:28.703Z,5.30
